sensor_id;sensor_type;location;lat;lon;timestamp;pressure;altitude;pressure_sealevel;temperature;humidity
25392;BME280;13329;48.402;11.718;2024-03-08T00:00:29;96191.34;;;3.17;80.51
25392;BME280;13329;48.402;11.718;2024-03-08T00:02:54;96185.66;;;3.33;80.08
25392;BME280;13329;48.402;11.718;2024-03-08T00:05:20;96193.72;;;3.25;80.27
25392;BME280;13329;48.402;11.718;2024-03-08T00:07:45;96189.13;;;3.21;80.31
25392;BME280;13329;48.402;11.718;2024-03-08T00:10:12;96182.88;;;3.28;80.56
25392;BME280;13329;48.402;11.718;2024-03-08T00:12:41;96181.38;;;3.07;81.05
25392;BME280;13329;48.402;11.718;2024-03-08T00:15:08;96184.13;;;3.19;80.82
25392;BME280;13329;48.402;11.718;2024-03-08T00:17:34;96177.88;;;3.20;80.94
25392;BME280;13329;48.402;11.718;2024-03-08T00:19:59;96177.72;;;3.15;80.80
25392;BME280;13329;48.402;11.718;2024-03-08T00:22:25;96170.13;;;3.07;81.70
25392;BME280;13329;48.402;11.718;2024-03-08T00:24:50;96169.13;;;3.08;81.75
25392;BME280;13329;48.402;11.718;2024-03-08T00:27:16;96177.53;;;3.10;81.79
25392;BME280;13329;48.402;11.718;2024-03-08T00:29:41;96169.53;;;3.12;81.31
25392;BME280;13329;48.402;11.718;2024-03-08T00:32:06;96163.47;;;3.11;81.35
25392;BME280;13329;48.402;11.718;2024-03-08T00:34:35;96156.84;;;3.15;80.68
25392;BME280;13329;48.402;11.718;2024-03-08T00:37:01;96165.84;;;3.26;80.80
25392;BME280;13329;48.402;11.718;2024-03-08T00:39:27;96156.03;;;3.21;80.47
25392;BME280;13329;48.402;11.718;2024-03-08T00:41:52;96158.88;;;3.13;80.69
25392;BME280;13329;48.402;11.718;2024-03-08T00:44:17;96153.75;;;2.93;81.87
25392;BME280;13329;48.402;11.718;2024-03-08T00:46:43;96146.44;;;3.15;81.02
25392;BME280;13329;48.402;11.718;2024-03-08T00:49:09;96155.47;;;3.13;81.04
25392;BME280;13329;48.402;11.718;2024-03-08T00:51:34;96151.50;;;2.97;81.46
25392;BME280;13329;48.402;11.718;2024-03-08T00:53:59;96155.72;;;2.98;81.08
25392;BME280;13329;48.402;11.718;2024-03-08T00:56:25;96155.72;;;2.98;80.97
25392;BME280;13329;48.402;11.718;2024-03-08T00:58:50;96156.53;;;2.92;81.64
25392;BME280;13329;48.402;11.718;2024-03-08T01:01:17;96146.25;;;3.10;81.03
25392;BME280;13329;48.402;11.718;2024-03-08T01:03:43;96146.69;;;3.07;80.73
25392;BME280;13329;48.402;11.718;2024-03-08T01:06:08;96144.50;;;2.97;80.68
25392;BME280;13329;48.402;11.718;2024-03-08T01:08:34;96139.31;;;2.91;81.34
25392;BME280;13329;48.402;11.718;2024-03-08T01:10:59;96137.84;;;3.08;81.29
25392;BME280;13329;48.402;11.718;2024-03-08T01:13:24;96136.47;;;2.92;81.10
25392;BME280;13329;48.402;11.718;2024-03-08T01:15:49;96131.66;;;2.96;81.90
25392;BME280;13329;48.402;11.718;2024-03-08T01:18:15;96132.91;;;2.87;83.00
25392;BME280;13329;48.402;11.718;2024-03-08T01:20:40;96128.88;;;2.91;82.00
25392;BME280;13329;48.402;11.718;2024-03-08T01:23:06;96121.72;;;2.79;82.82
25392;BME280;13329;48.402;11.718;2024-03-08T01:25:33;96123.84;;;2.96;82.58
25392;BME280;13329;48.402;11.718;2024-03-08T01:27:58;96121.94;;;2.78;83.09
25392;BME280;13329;48.402;11.718;2024-03-08T01:30:23;96116.50;;;2.79;83.19
25392;BME280;13329;48.402;11.718;2024-03-08T01:32:48;96117.69;;;2.83;83.17
25392;BME280;13329;48.402;11.718;2024-03-08T01:35:14;96115.59;;;3.05;82.29
25392;BME280;13329;48.402;11.718;2024-03-08T01:37:39;96109.25;;;2.81;83.00
25392;BME280;13329;48.402;11.718;2024-03-08T01:40:05;96104.41;;;2.98;82.33
25392;BME280;13329;48.402;11.718;2024-03-08T01:42:32;96107.88;;;2.79;83.16
25392;BME280;13329;48.402;11.718;2024-03-08T01:44:57;96101.66;;;2.80;84.27
25392;BME280;13329;48.402;11.718;2024-03-08T01:47:22;96090.84;;;2.76;84.43
25392;BME280;13329;48.402;11.718;2024-03-08T01:49:49;96085.31;;;2.53;85.41
25392;BME280;13329;48.402;11.718;2024-03-08T01:52:15;96090.88;;;2.63;85.18
25392;BME280;13329;48.402;11.718;2024-03-08T01:54:41;96088.06;;;2.78;84.72
25392;BME280;13329;48.402;11.718;2024-03-08T01:57:07;96082.09;;;2.64;84.82
25392;BME280;13329;48.402;11.718;2024-03-08T01:59:32;96076.09;;;2.57;85.99
25392;BME280;13329;48.402;11.718;2024-03-08T02:02:00;96087.28;;;2.57;85.64
25392;BME280;13329;48.402;11.718;2024-03-08T02:04:26;96082.06;;;2.71;85.01
25392;BME280;13329;48.402;11.718;2024-03-08T02:06:52;96073.28;;;2.52;85.99
25392;BME280;13329;48.402;11.718;2024-03-08T02:09:17;96078.44;;;2.72;85.46
25392;BME280;13329;48.402;11.718;2024-03-08T02:11:42;96070.44;;;2.67;85.20
25392;BME280;13329;48.402;11.718;2024-03-08T02:14:08;96070.44;;;2.67;85.13
25392;BME280;13329;48.402;11.718;2024-03-08T02:16:34;96059.09;;;2.48;85.88
25392;BME280;13329;48.402;11.718;2024-03-08T02:19:00;96055.28;;;2.44;86.25
25392;BME280;13329;48.402;11.718;2024-03-08T02:21:25;96053.06;;;2.54;86.23
25392;BME280;13329;48.402;11.718;2024-03-08T02:23:51;96054.88;;;2.47;85.85
25392;BME280;13329;48.402;11.718;2024-03-08T02:26:17;96049.47;;;2.55;85.52
25392;BME280;13329;48.402;11.718;2024-03-08T02:28:43;96049.69;;;2.47;86.38
25392;BME280;13329;48.402;11.718;2024-03-08T02:31:09;96046.50;;;2.38;85.82
25392;BME280;13329;48.402;11.718;2024-03-08T02:33:34;96041.25;;;2.51;86.09
25392;BME280;13329;48.402;11.718;2024-03-08T02:36:00;96036.19;;;2.63;85.56
25392;BME280;13329;48.402;11.718;2024-03-08T02:38:25;96038.03;;;2.56;85.59
25392;BME280;13329;48.402;11.718;2024-03-08T02:40:52;96042.00;;;2.58;85.93
25392;BME280;13329;48.402;11.718;2024-03-08T02:43:18;96027.97;;;2.66;85.33
25392;BME280;13329;48.402;11.718;2024-03-08T02:45:44;96047.88;;;2.54;84.39
25392;BME280;13329;48.402;11.718;2024-03-08T02:48:14;96036.44;;;2.55;85.73
25392;BME280;13329;48.402;11.718;2024-03-08T02:50:40;96029.81;;;2.59;84.88
25392;BME280;13329;48.402;11.718;2024-03-08T02:53:07;96036.94;;;2.25;86.03
25392;BME280;13329;48.402;11.718;2024-03-08T02:55:33;96031.31;;;2.28;86.38
25392;BME280;13329;48.402;11.718;2024-03-08T02:58:03;96035.28;;;2.38;86.56
25392;BME280;13329;48.402;11.718;2024-03-08T03:00:29;96030.47;;;2.35;86.21
25392;BME280;13329;48.402;11.718;2024-03-08T03:02:56;96027.69;;;2.29;86.19
25392;BME280;13329;48.402;11.718;2024-03-08T03:05:22;96030.06;;;2.38;86.16
25392;BME280;13329;48.402;11.718;2024-03-08T03:07:48;96028.66;;;2.42;85.42
25392;BME280;13329;48.402;11.718;2024-03-08T03:10:14;96024.47;;;2.41;85.43
25392;BME280;13329;48.402;11.718;2024-03-08T03:12:42;96013.19;;;2.53;84.74
25392;BME280;13329;48.402;11.718;2024-03-08T03:15:08;96009.25;;;2.38;85.27
25392;BME280;13329;48.402;11.718;2024-03-08T03:17:33;96012.84;;;2.37;85.67
25392;BME280;13329;48.402;11.718;2024-03-08T03:19:58;96003.03;;;2.39;85.81
25392;BME280;13329;48.402;11.718;2024-03-08T03:22:24;96012.25;;;2.35;85.77
25392;BME280;13329;48.402;11.718;2024-03-08T03:24:50;96006.44;;;2.39;85.50
25392;BME280;13329;48.402;11.718;2024-03-08T03:27:17;96012.50;;;2.26;86.28
25392;BME280;13329;48.402;11.718;2024-03-08T03:29:43;96018.53;;;2.14;86.90
25392;BME280;13329;48.402;11.718;2024-03-08T03:32:12;96010.09;;;2.18;87.34
25392;BME280;13329;48.402;11.718;2024-03-08T03:34:38;96009.69;;;2.28;87.33
25392;BME280;13329;48.402;11.718;2024-03-08T03:37:04;96013.28;;;2.20;87.85
25392;BME280;13329;48.402;11.718;2024-03-08T03:39:30;96013.25;;;2.34;87.42
25392;BME280;13329;48.402;11.718;2024-03-08T03:42:13;96010.47;;;2.28;88.19
25392;BME280;13329;48.402;11.718;2024-03-08T03:44:39;96013.72;;;2.11;88.80
25392;BME280;13329;48.402;11.718;2024-03-08T03:47:05;96015.50;;;2.23;88.64
25392;BME280;13329;48.402;11.718;2024-03-08T03:49:31;96020.69;;;2.23;89.15
25392;BME280;13329;48.402;11.718;2024-03-08T03:51:56;96005.63;;;2.39;89.42
25392;BME280;13329;48.402;11.718;2024-03-08T03:54:21;96017.13;;;2.18;90.68
25392;BME280;13329;48.402;11.718;2024-03-08T03:56:46;96022.28;;;2.24;89.81
25392;BME280;13329;48.402;11.718;2024-03-08T03:59:16;96007.63;;;2.50;88.99
25392;BME280;13329;48.402;11.718;2024-03-08T04:01:42;96017.66;;;2.33;88.35
25392;BME280;13329;48.402;11.718;2024-03-08T04:04:08;96002.22;;;2.38;89.37
25392;BME280;13329;48.402;11.718;2024-03-08T04:06:33;95998.00;;;2.44;88.78
25392;BME280;13329;48.402;11.718;2024-03-08T04:08:58;96000.56;;;2.57;88.14
25392;BME280;13329;48.402;11.718;2024-03-08T04:11:24;96002.50;;;2.68;86.85
25392;BME280;13329;48.402;11.718;2024-03-08T04:13:49;95997.19;;;2.43;87.75
25392;BME280;13329;48.402;11.718;2024-03-08T04:16:14;95993.22;;;2.41;87.83
25392;BME280;13329;48.402;11.718;2024-03-08T04:18:40;95987.75;;;2.49;89.10
25392;BME280;13329;48.402;11.718;2024-03-08T04:21:06;95989.97;;;2.52;87.82
25392;BME280;13329;48.402;11.718;2024-03-08T04:23:34;95987.56;;;2.50;88.26
25392;BME280;13329;48.402;11.718;2024-03-08T04:26:03;95987.38;;;2.52;87.70
25392;BME280;13329;48.402;11.718;2024-03-08T04:28:29;95982.69;;;2.67;87.69
25392;BME280;13329;48.402;11.718;2024-03-08T04:30:55;95982.69;;;2.67;86.93
25392;BME280;13329;48.402;11.718;2024-03-08T04:33:20;95989.69;;;2.67;86.93
25392;BME280;13329;48.402;11.718;2024-03-08T04:35:46;95987.53;;;2.57;87.12
25392;BME280;13329;48.402;11.718;2024-03-08T04:38:12;95986.84;;;2.75;86.84
25392;BME280;13329;48.402;11.718;2024-03-08T04:40:37;95983.91;;;2.58;87.42
25392;BME280;13329;48.402;11.718;2024-03-08T04:43:03;95981.94;;;2.60;87.64
25392;BME280;13329;48.402;11.718;2024-03-08T04:45:28;95980.38;;;2.46;86.54
25392;BME280;13329;48.402;11.718;2024-03-08T04:47:53;95975.03;;;2.27;88.83
25392;BME280;13329;48.402;11.718;2024-03-08T04:50:19;95980.38;;;2.39;88.38
25392;BME280;13329;48.402;11.718;2024-03-08T04:52:44;95973.63;;;2.31;88.83
25392;BME280;13329;48.402;11.718;2024-03-08T04:55:09;95981.63;;;2.37;88.71
25392;BME280;13329;48.402;11.718;2024-03-08T04:57:35;95972.72;;;2.57;87.51
25392;BME280;13329;48.402;11.718;2024-03-08T05:00:00;95970.66;;;2.66;86.50
25392;BME280;13329;48.402;11.718;2024-03-08T05:02:26;95967.81;;;2.74;86.19
25392;BME280;13329;48.402;11.718;2024-03-08T05:04:51;95963.25;;;2.70;85.06
25392;BME280;13329;48.402;11.718;2024-03-08T05:07:17;95960.66;;;2.63;85.08
25392;BME280;13329;48.402;11.718;2024-03-08T05:09:42;95964.16;;;2.82;84.51
25392;BME280;13329;48.402;11.718;2024-03-08T05:12:07;95957.97;;;2.83;84.25
25392;BME280;13329;48.402;11.718;2024-03-08T05:14:33;95967.31;;;2.91;83.62
25392;BME280;13329;48.402;11.718;2024-03-08T05:17:00;95960.06;;;2.61;84.63
25392;BME280;13329;48.402;11.718;2024-03-08T05:19:26;95962.97;;;2.46;85.39
25392;BME280;13329;48.402;11.718;2024-03-08T05:21:51;95964.22;;;2.30;86.09
25392;BME280;13329;48.402;11.718;2024-03-08T05:24:17;95958.41;;;2.28;86.42
25392;BME280;13329;48.402;11.718;2024-03-08T05:26:43;95969.72;;;1.96;87.59
25392;BME280;13329;48.402;11.718;2024-03-08T05:29:08;95954.06;;;2.16;87.52
25392;BME280;13329;48.402;11.718;2024-03-08T05:31:50;95970.50;;;2.10;87.70
25392;BME280;13329;48.402;11.718;2024-03-08T05:34:19;95960.09;;;1.96;88.53
25392;BME280;13329;48.402;11.718;2024-03-08T05:36:45;95956.63;;;2.22;87.29
25392;BME280;13329;48.402;11.718;2024-03-08T05:39:15;95952.66;;;2.13;87.77
25392;BME280;13329;48.402;11.718;2024-03-08T05:41:41;95958.09;;;2.05;87.78
25392;BME280;13329;48.402;11.718;2024-03-08T05:44:06;95942.84;;;2.22;86.79
25392;BME280;13329;48.402;11.718;2024-03-08T05:46:33;95955.63;;;2.23;86.46
25392;BME280;13329;48.402;11.718;2024-03-08T05:48:58;95949.19;;;2.33;86.23
25392;BME280;13329;48.402;11.718;2024-03-08T05:51:24;95947.44;;;2.20;85.55
25392;BME280;13329;48.402;11.718;2024-03-08T05:53:52;95950.81;;;2.20;85.69
25392;BME280;13329;48.402;11.718;2024-03-08T05:56:18;95958.63;;;2.20;85.91
25392;BME280;13329;48.402;11.718;2024-03-08T05:58:44;95951.19;;;2.37;84.93
25392;BME280;13329;48.402;11.718;2024-03-08T06:01:09;95945.25;;;2.10;86.01
25392;BME280;13329;48.402;11.718;2024-03-08T06:03:38;95951.25;;;2.17;85.77
25392;BME280;13329;48.402;11.718;2024-03-08T06:06:09;95948.41;;;2.32;85.99
25392;BME280;13329;48.402;11.718;2024-03-08T06:08:34;95945.50;;;2.02;86.53
25392;BME280;13329;48.402;11.718;2024-03-08T06:10:59;95959.75;;;1.93;87.65
25392;BME280;13329;48.402;11.718;2024-03-08T06:13:27;95945.56;;;2.40;86.44
25392;BME280;13329;48.402;11.718;2024-03-08T06:15:52;95948.56;;;2.37;84.89
25392;BME280;13329;48.402;11.718;2024-03-08T06:18:18;95941.69;;;2.04;85.15
25392;BME280;13329;48.402;11.718;2024-03-08T06:20:43;95945.03;;;2.18;86.47
25392;BME280;13329;48.402;11.718;2024-03-08T06:23:09;95942.13;;;2.46;84.96
25392;BME280;13329;48.402;11.718;2024-03-08T06:25:34;95940.38;;;2.34;85.45
25392;BME280;13329;48.402;11.718;2024-03-08T06:28:00;95942.28;;;2.51;83.64
25392;BME280;13329;48.402;11.718;2024-03-08T06:30:25;95946.53;;;2.46;84.08
25392;BME280;13329;48.402;11.718;2024-03-08T06:32:50;95940.72;;;2.44;84.62
25392;BME280;13329;48.402;11.718;2024-03-08T06:35:16;95942.13;;;2.46;84.39
25392;BME280;13329;48.402;11.718;2024-03-08T06:37:41;95941.50;;;2.51;84.21
25392;BME280;13329;48.402;11.718;2024-03-08T06:40:09;95932.00;;;2.63;83.35
25392;BME280;13329;48.402;11.718;2024-03-08T06:42:39;95936.75;;;2.73;83.12
25392;BME280;13329;48.402;11.718;2024-03-08T06:45:04;95937.03;;;2.58;83.42
25392;BME280;13329;48.402;11.718;2024-03-08T06:47:31;95943.47;;;2.55;84.10
25392;BME280;13329;48.402;11.718;2024-03-08T06:49:57;95944.56;;;2.79;82.63
25392;BME280;13329;48.402;11.718;2024-03-08T06:52:22;95943.47;;;2.55;82.75
25392;BME280;13329;48.402;11.718;2024-03-08T06:54:48;95940.59;;;2.70;83.14
25392;BME280;13329;48.402;11.718;2024-03-08T06:57:13;95936.28;;;2.89;82.04
25392;BME280;13329;48.402;11.718;2024-03-08T06:59:39;95938.69;;;3.16;81.70
25392;BME280;13329;48.402;11.718;2024-03-08T07:02:04;95950.56;;;3.37;80.17
25392;BME280;13329;48.402;11.718;2024-03-08T07:04:29;95942.06;;;3.66;78.77
25392;BME280;13329;48.402;11.718;2024-03-08T07:06:56;95937.88;;;3.15;79.35
25392;BME280;13329;48.402;11.718;2024-03-08T07:09:23;95937.16;;;3.08;80.09
25392;BME280;13329;48.402;11.718;2024-03-08T07:11:48;95939.22;;;3.24;80.29
25392;BME280;13329;48.402;11.718;2024-03-08T07:14:21;95940.81;;;3.50;79.08
25392;BME280;13329;48.402;11.718;2024-03-08T07:16:47;95937.69;;;3.42;77.56
25392;BME280;13329;48.402;11.718;2024-03-08T07:19:12;95942.28;;;3.21;78.91
25392;BME280;13329;48.402;11.718;2024-03-08T07:21:37;95940.78;;;3.07;80.44
25392;BME280;13329;48.402;11.718;2024-03-08T07:24:03;95945.06;;;3.45;79.59
25392;BME280;13329;48.402;11.718;2024-03-08T07:26:38;95941.38;;;3.77;77.45
25392;BME280;13329;48.402;11.718;2024-03-08T07:29:03;95942.75;;;3.37;78.25
25392;BME280;13329;48.402;11.718;2024-03-08T07:31:29;95943.09;;;3.15;79.10
25392;BME280;13329;48.402;11.718;2024-03-08T07:34:09;95936.53;;;3.06;80.46
25392;BME280;13329;48.402;11.718;2024-03-08T07:36:35;95937.63;;;2.98;81.01
25392;BME280;13329;48.402;11.718;2024-03-08T07:39:00;95944.59;;;3.29;80.71
25392;BME280;13329;48.402;11.718;2024-03-08T07:41:26;95946.16;;;3.12;80.26
25392;BME280;13329;48.402;11.718;2024-03-08T07:43:51;95934.59;;;3.51;79.85
25392;BME280;13329;48.402;11.718;2024-03-08T07:46:17;95930.22;;;3.70;77.74
25392;BME280;13329;48.402;11.718;2024-03-08T07:48:44;95938.66;;;3.22;78.38
25392;BME280;13329;48.402;11.718;2024-03-08T07:51:10;95940.44;;;3.47;79.68
25392;BME280;13329;48.402;11.718;2024-03-08T07:53:37;95929.25;;;3.40;79.83
25392;BME280;13329;48.402;11.718;2024-03-08T07:56:03;95937.84;;;3.47;79.32
25392;BME280;13329;48.402;11.718;2024-03-08T07:58:30;95933.22;;;3.67;78.67
25392;BME280;13329;48.402;11.718;2024-03-08T08:00:55;95940.44;;;3.47;78.53
25392;BME280;13329;48.402;11.718;2024-03-08T08:03:20;95927.94;;;3.05;79.17
25392;BME280;13329;48.402;11.718;2024-03-08T08:05:46;95932.34;;;3.05;80.46
25392;BME280;13329;48.402;11.718;2024-03-08T08:08:11;95924.72;;;3.53;78.70
25392;BME280;13329;48.402;11.718;2024-03-08T08:10:37;95920.25;;;3.60;77.90
25392;BME280;13329;48.402;11.718;2024-03-08T08:13:02;95921.09;;;3.98;76.77
25392;BME280;13329;48.402;11.718;2024-03-08T08:15:29;95914.09;;;3.73;76.27
25392;BME280;13329;48.402;11.718;2024-03-08T08:17:55;95917.16;;;4.07;74.78
25392;BME280;13329;48.402;11.718;2024-03-08T08:20:20;95921.75;;;3.93;75.11
25392;BME280;13329;48.402;11.718;2024-03-08T08:22:47;95927.31;;;4.15;74.30
25392;BME280;13329;48.402;11.718;2024-03-08T08:25:13;95920.44;;;3.84;75.51
25392;BME280;13329;48.402;11.718;2024-03-08T08:27:41;95916.09;;;4.45;73.91
25392;BME280;13329;48.402;11.718;2024-03-08T08:30:08;95917.16;;;4.25;74.00
25392;BME280;13329;48.402;11.718;2024-03-08T08:32:34;95916.34;;;5.62;70.68
25392;BME280;13329;48.402;11.718;2024-03-08T08:35:01;95905.63;;;5.99;68.25
25392;BME280;13329;48.402;11.718;2024-03-08T08:37:27;95906.44;;;6.97;63.21
25392;BME280;13329;48.402;11.718;2024-03-08T08:39:53;95903.34;;;7.16;62.05
25392;BME280;13329;48.402;11.718;2024-03-08T08:42:19;95896.84;;;7.91;61.05
25392;BME280;13329;48.402;11.718;2024-03-08T08:44:44;95889.56;;;7.60;60.31
25392;BME280;13329;48.402;11.718;2024-03-08T08:47:09;95877.50;;;7.81;59.60
25392;BME280;13329;48.402;11.718;2024-03-08T08:49:35;95887.84;;;7.15;60.92
25392;BME280;13329;48.402;11.718;2024-03-08T08:52:00;95886.63;;;6.43;62.53
25392;BME280;13329;48.402;11.718;2024-03-08T08:54:26;95887.78;;;5.72;64.79
25392;BME280;13329;48.402;11.718;2024-03-08T08:56:52;95878.47;;;6.85;63.44
25392;BME280;13329;48.402;11.718;2024-03-08T08:59:18;95874.13;;;6.34;63.40
25392;BME280;13329;48.402;11.718;2024-03-08T09:01:50;95877.50;;;6.91;61.42
25392;BME280;13329;48.402;11.718;2024-03-08T09:04:17;95880.91;;;7.42;61.01
25392;BME280;13329;48.402;11.718;2024-03-08T09:06:43;95873.13;;;8.08;58.39
25392;BME280;13329;48.402;11.718;2024-03-08T09:09:09;95874.91;;;8.03;58.13
25392;BME280;13329;48.402;11.718;2024-03-08T09:11:36;95872.53;;;8.45;56.39
25392;BME280;13329;48.402;11.718;2024-03-08T09:14:03;95873.38;;;8.51;57.06
25392;BME280;13329;48.402;11.718;2024-03-08T09:16:30;95860.38;;;8.93;56.56
25392;BME280;13329;48.402;11.718;2024-03-08T09:18:56;95866.09;;;10.01;53.71
25392;BME280;13329;48.402;11.718;2024-03-08T09:21:22;95854.63;;;9.33;55.28
25392;BME280;13329;48.402;11.718;2024-03-08T09:23:47;95849.50;;;11.15;51.86
25392;BME280;13329;48.402;11.718;2024-03-08T09:26:12;95850.16;;;12.02;50.19
25392;BME280;13329;48.402;11.718;2024-03-08T09:28:38;95850.78;;;10.66;51.35
25392;BME280;13329;48.402;11.718;2024-03-08T09:31:03;95834.72;;;10.83;51.41
25392;BME280;13329;48.402;11.718;2024-03-08T09:33:30;95843.59;;;11.79;49.97
25392;BME280;13329;48.402;11.718;2024-03-08T09:35:56;95841.25;;;12.42;48.13
25392;BME280;13329;48.402;11.718;2024-03-08T09:38:23;95838.09;;;13.19;47.00
25392;BME280;13329;48.402;11.718;2024-03-08T09:40:50;95835.00;;;13.70;45.54
25392;BME280;13329;48.402;11.718;2024-03-08T09:43:15;95833.78;;;14.10;44.77
25392;BME280;13329;48.402;11.718;2024-03-08T09:45:42;95825.19;;;14.18;44.43
25392;BME280;13329;48.402;11.718;2024-03-08T09:48:11;95829.56;;;12.53;47.27
25392;BME280;13329;48.402;11.718;2024-03-08T09:50:40;95827.66;;;12.10;47.16
25392;BME280;13329;48.402;11.718;2024-03-08T09:53:06;95826.56;;;13.04;46.50
25392;BME280;13329;48.402;11.718;2024-03-08T09:55:36;95823.00;;;12.85;46.12
25392;BME280;13329;48.402;11.718;2024-03-08T09:58:05;95821.28;;;13.04;45.59
25392;BME280;13329;48.402;11.718;2024-03-08T10:01:01;95819.50;;;14.68;43.23
25392;BME280;13329;48.402;11.718;2024-03-08T10:03:27;95819.94;;;13.36;45.07
25392;BME280;13329;48.402;11.718;2024-03-08T10:05:53;95819.41;;;11.26;48.09
25392;BME280;13329;48.402;11.718;2024-03-08T10:08:23;95814.28;;;12.40;48.11
25392;BME280;13329;48.402;11.718;2024-03-08T10:10:51;95815.75;;;12.62;46.25
25392;BME280;13329;48.402;11.718;2024-03-08T10:13:16;95811.72;;;12.69;46.70
25392;BME280;13329;48.402;11.718;2024-03-08T10:15:44;95813.47;;;14.00;44.29
25392;BME280;13329;48.402;11.718;2024-03-08T10:18:10;95800.03;;;14.34;43.20
25392;BME280;13329;48.402;11.718;2024-03-08T10:20:35;95797.25;;;15.48;41.58
25392;BME280;13329;48.402;11.718;2024-03-08T10:23:02;95794.78;;;15.05;42.07
25392;BME280;13329;48.402;11.718;2024-03-08T10:25:30;95801.72;;;13.58;42.60
25392;BME280;13329;48.402;11.718;2024-03-08T10:27:55;95801.44;;;13.60;44.85
25392;BME280;13329;48.402;11.718;2024-03-08T10:30:21;95791.25;;;14.58;43.31
25392;BME280;13329;48.402;11.718;2024-03-08T10:32:47;95787.97;;;15.45;41.81
25392;BME280;13329;48.402;11.718;2024-03-08T10:35:13;95792.72;;;14.45;43.41
25392;BME280;13329;48.402;11.718;2024-03-08T10:37:49;95799.75;;;13.69;44.84
25392;BME280;13329;48.402;11.718;2024-03-08T10:40:19;95799.44;;;14.61;42.82
25392;BME280;13329;48.402;11.718;2024-03-08T10:48:14;95784.75;;;14.45;43.32
25392;BME280;13329;48.402;11.718;2024-03-08T10:50:43;95782.91;;;15.16;41.44
25392;BME280;13329;48.402;11.718;2024-03-08T10:53:14;95784.09;;;15.70;40.77
25392;BME280;13329;48.402;11.718;2024-03-08T10:55:40;95781.19;;;15.06;41.31
25392;BME280;13329;48.402;11.718;2024-03-08T10:58:08;95769.34;;;14.47;41.41
25392;BME280;13329;48.402;11.718;2024-03-08T11:00:35;95772.03;;;15.45;41.26
25392;BME280;13329;48.402;11.718;2024-03-08T11:03:00;95762.72;;;16.75;38.73
25392;BME280;13329;48.402;11.718;2024-03-08T11:05:39;95757.03;;;16.32;37.94
25392;BME280;13329;48.402;11.718;2024-03-08T11:08:16;95761.06;;;14.11;42.18
25392;BME280;13329;48.402;11.718;2024-03-08T11:13:45;95756.19;;;13.27;45.01
25392;BME280;13329;48.402;11.718;2024-03-08T11:16:12;95743.13;;;14.78;42.50
25392;BME280;13329;48.402;11.718;2024-03-08T11:18:38;95739.66;;;14.97;40.79
25392;BME280;13329;48.402;11.718;2024-03-08T11:21:12;95742.84;;;15.26;40.79
25392;BME280;13329;48.402;11.718;2024-03-08T11:23:38;95733.97;;;15.17;40.98
25392;BME280;13329;48.402;11.718;2024-03-08T11:26:18;95737.28;;;16.33;38.89
25392;BME280;13329;48.402;11.718;2024-03-08T11:28:43;95725.56;;;16.56;38.86
25392;BME280;13329;48.402;11.718;2024-03-08T11:33:35;95719.41;;;17.94;37.07
25392;BME280;13329;48.402;11.718;2024-03-08T11:36:07;95716.63;;;18.86;35.46
25392;BME280;13329;48.402;11.718;2024-03-08T11:38:45;95725.09;;;16.54;38.40
25392;BME280;13329;48.402;11.718;2024-03-08T11:41:17;95716.59;;;16.52;38.49
25392;BME280;13329;48.402;11.718;2024-03-08T11:43:43;95711.59;;;16.96;36.71
25392;BME280;13329;48.402;11.718;2024-03-08T11:46:09;95721.78;;;17.25;36.63
25392;BME280;13329;48.402;11.718;2024-03-08T11:48:34;95707.94;;;16.24;37.84
25392;BME280;13329;48.402;11.718;2024-03-08T11:51:01;95709.38;;;16.44;37.47
25392;BME280;13329;48.402;11.718;2024-03-08T11:53:27;95702.97;;;16.31;38.48
25392;BME280;13329;48.402;11.718;2024-03-08T11:55:52;95693.06;;;16.09;37.88
25392;BME280;13329;48.402;11.718;2024-03-08T11:58:17;95694.28;;;14.93;40.53
25392;BME280;13329;48.402;11.718;2024-03-08T12:00:43;95691.06;;;16.51;38.68
25392;BME280;13329;48.402;11.718;2024-03-08T12:03:11;95692.44;;;17.25;36.72
25392;BME280;13329;48.402;11.718;2024-03-08T12:05:37;95682.03;;;15.52;37.44
25392;BME280;13329;48.402;11.718;2024-03-08T12:08:03;95677.78;;;14.63;39.85
25392;BME280;13329;48.402;11.718;2024-03-08T12:10:31;95672.16;;;15.80;38.89
25392;BME280;13329;48.402;11.718;2024-03-08T12:12:58;95674.25;;;16.87;37.60
25392;BME280;13329;48.402;11.718;2024-03-08T12:15:29;95667.31;;;16.19;37.83
25392;BME280;13329;48.402;11.718;2024-03-08T12:17:55;95671.34;;;17.37;37.38
25392;BME280;13329;48.402;11.718;2024-03-08T12:20:27;95660.72;;;19.10;34.85
25392;BME280;13329;48.402;11.718;2024-03-08T12:22:57;95658.03;;;19.19;33.63
25392;BME280;13329;48.402;11.718;2024-03-08T12:25:26;95659.34;;;19.04;34.23
25392;BME280;13329;48.402;11.718;2024-03-08T12:27:51;95658.47;;;16.09;38.51
25392;BME280;13329;48.402;11.718;2024-03-08T12:32:55;95652.75;;;16.61;36.25
25392;BME280;13329;48.402;11.718;2024-03-08T12:35:27;95644.22;;;16.28;37.56
25392;BME280;13329;48.402;11.718;2024-03-08T12:37:55;95647.72;;;16.59;37.63
25392;BME280;13329;48.402;11.718;2024-03-08T12:40:28;95650.03;;;16.07;37.51
25392;BME280;13329;48.402;11.718;2024-03-08T12:42:58;95639.56;;;16.33;38.31
25392;BME280;13329;48.402;11.718;2024-03-08T12:45:24;95635.22;;;18.05;35.34
25392;BME280;13329;48.402;11.718;2024-03-08T12:47:54;95633.03;;;18.42;34.48
25392;BME280;13329;48.402;11.718;2024-03-08T12:50:20;95637.28;;;15.82;35.36
25392;BME280;13329;48.402;11.718;2024-03-08T12:52:47;95629.94;;;17.39;35.51
25392;BME280;13329;48.402;11.718;2024-03-08T12:55:13;95630.84;;;16.64;35.91
25392;BME280;13329;48.402;11.718;2024-03-08T12:57:39;95623.91;;;17.74;35.25
25392;BME280;13329;48.402;11.718;2024-03-08T13:00:05;95618.19;;;18.88;33.44
25392;BME280;13329;48.402;11.718;2024-03-08T13:02:30;95615.72;;;15.42;37.30
25392;BME280;13329;48.402;11.718;2024-03-08T13:05:00;95616.25;;;15.44;37.82
25392;BME280;13329;48.402;11.718;2024-03-08T13:07:26;95607.66;;;16.42;36.67